Time;durP1;ratioP1;P1;durP2;ratioP2;P2;SDS_P1;SDS_P2;PMS_P1;PMS_P2;Temp;Humidity;BMP_temperature;BMP_pressure;BME280_temperature;BME280_humidity;BME280_pressure;Samples;Min_cycle;Max_cycle;Signal;HPM_P1;HPM_P2
2021/12/31 00:01:01;;;;;;;3.00;1.20;;;;;;;5.77;100.00;96629.16;103409;1318;30939;-75
2021/12/31 00:03:32;;;;;;;2.90;1.30;;;;;;;5.78;100.00;96632.70;103354;1318;34447;-75
2021/12/31 00:06:02;;;;;;;3.30;1.10;;;;;;;5.80;100.00;96631.30;103394;1318;31408;-75
2021/12/31 00:08:33;;;;;;;1.60;0.90;;;;;;;5.82;100.00;96639.11;103353;1318;27768;-75
2021/12/31 00:11:04;;;;;;;1.60;1.00;;;;;;;5.85;100.00;96639.77;103410;1317;34303;-75
2021/12/31 00:13:35;;;;;;;1.90;0.80;;;;;;;5.85;100.00;96643.45;103394;1317;29348;-75
2021/12/31 00:16:06;;;;;;;1.90;0.80;;;;;;;5.88;100.00;96644.31;103421;1318;30629;-75
2021/12/31 00:18:37;;;;;;;1.20;0.60;;;;;;;5.92;100.00;96653.25;103336;1317;41527;-75
2021/12/31 00:21:08;;;;;;;2.10;0.80;;;;;;;5.94;100.00;96656.74;103429;1316;32232;-75
2021/12/31 00:23:42;;;;;;;0.90;0.50;;;;;;;5.96;100.00;96655.86;103410;1318;29039;-75
2021/12/31 00:26:13;;;;;;;1.50;0.90;;;;;;;5.99;100.00;96661.98;103239;1318;38867;-75
2021/12/31 00:28:44;;;;;;;0.80;0.40;;;;;;;5.99;100.00;96654.10;103374;1316;33059;-75
2021/12/31 00:31:15;;;;;;;0.90;0.60;;;;;;;6.01;100.00;96655.64;103441;1314;33853;-75
2021/12/31 00:33:46;;;;;;;0.50;0.40;;;;;;;6.01;100.00;96657.91;103392;1317;40624;-75
2021/12/31 00:36:17;;;;;;;1.10;0.50;;;;;;;6.00;100.00;96657.31;103389;1317;31724;-75
2021/12/31 00:38:48;;;;;;;1.50;0.80;;;;;;;6.02;100.00;96666.23;103443;1318;29625;-75
2021/12/31 00:41:19;;;;;;;2.10;0.60;;;;;;;6.04;100.00;96666.40;103412;1316;30596;-75
2021/12/31 00:43:49;;;;;;;0.70;0.40;;;;;;;6.03;100.00;96666.98;103395;1317;32243;-75
2021/12/31 00:46:20;;;;;;;1.00;0.80;;;;;;;6.01;100.00;96668.06;103394;1317;35906;-75
2021/12/31 00:48:51;;;;;;;1.20;0.50;;;;;;;6.01;100.00;96666.64;103463;1318;34346;-75
2021/12/31 00:51:22;;;;;;;0.30;0.30;;;;;;;6.03;100.00;96669.98;103414;1317;38408;-75
2021/12/31 00:53:53;;;;;;;0.80;0.60;;;;;;;6.06;100.00;96670.03;103441;1317;34024;-75
2021/12/31 00:56:24;;;;;;;2.50;0.50;;;;;;;6.09;100.00;96677.90;103443;1317;33000;-75
2021/12/31 00:58:55;;;;;;;0.70;0.40;;;;;;;6.10;100.00;96678.64;103499;1317;33653;-75
2021/12/31 01:01:26;;;;;;;1.00;0.70;;;;;;;6.11;100.00;96677.70;103396;1317;35863;-75
2021/12/31 01:03:57;;;;;;;0.90;0.70;;;;;;;6.12;100.00;96683.23;103217;1318;42152;-75
2021/12/31 01:06:27;;;;;;;1.00;0.50;;;;;;;6.14;100.00;96677.63;103356;1317;34044;-75
2021/12/31 01:08:58;;;;;;;1.00;0.40;;;;;;;6.16;100.00;96677.85;103395;1316;31407;-76
2021/12/31 01:11:29;;;;;;;1.40;0.40;;;;;;;6.16;100.00;96681.70;103361;1317;35013;-75
2021/12/31 01:14:04;;;;;;;0.50;0.30;;;;;;;6.18;100.00;96680.18;103373;1317;44630;-75
2021/12/31 01:16:39;;;;;;;0.70;0.30;;;;;;;6.18;100.00;96681.96;103375;1317;36224;-75
2021/12/31 01:21:58;;;;;;;0.40;0.40;;;;;;;6.23;100.00;96689.63;103398;1318;43969;-75
2021/12/31 01:24:30;;;;;;;0.90;0.50;;;;;;;6.24;100.00;96686.89;103366;1317;34309;-75
2021/12/31 01:27:01;;;;;;;0.40;0.40;;;;;;;6.23;100.00;96688.52;103404;1318;31418;-75
2021/12/31 01:29:32;;;;;;;0.50;0.40;;;;;;;6.23;100.00;96690.98;103328;1317;33741;-75
2021/12/31 01:32:03;;;;;;;0.50;0.20;;;;;;;6.26;100.00;96691.02;103437;1317;32177;-75
2021/12/31 01:34:34;;;;;;;1.20;0.50;;;;;;;6.28;100.00;96694.08;103383;1318;35093;-75
2021/12/31 01:37:06;;;;;;;1.50;0.50;;;;;;;6.27;100.00;96693.61;103428;1316;33927;-75
2021/12/31 01:39:38;;;;;;;1.00;0.40;;;;;;;6.28;100.00;96694.29;103436;1318;31829;-75
2021/12/31 01:42:13;;;;;;;0.50;0.40;;;;;;;6.28;100.00;96697.39;103390;1313;42910;-75
2021/12/31 01:44:52;;;;;;;1.10;0.40;;;;;;;6.28;100.00;96699.04;103434;1315;29157;-75
2021/12/31 01:47:33;;;;;;;0.60;0.30;;;;;;;6.30;100.00;96700.89;103451;1313;33801;-75
2021/12/31 01:50:08;;;;;;;0.50;0.20;;;;;;;6.30;100.00;96700.78;103346;1316;38245;-75
2021/12/31 01:52:40;;;;;;;0.40;0.20;;;;;;;6.31;100.00;96703.00;103450;1317;33889;-75
2021/12/31 01:55:14;;;;;;;0.20;0.20;;;;;;;6.31;100.00;96703.12;103432;1312;29160;-75
2021/12/31 01:57:45;;;;;;;0.70;0.30;;;;;;;6.33;100.00;96705.23;103386;1316;26734;-75
2021/12/31 02:00:17;;;;;;;1.50;0.30;;;;;;;6.34;100.00;96709.80;103340;1318;42350;-75
2021/12/31 02:02:49;;;;;;;1.00;0.30;;;;;;;6.34;100.00;96710.80;103401;1317;38471;-75
2021/12/31 02:05:20;;;;;;;1.00;0.30;;;;;;;6.36;100.00;96710.91;103384;1317;44003;-75
2021/12/31 02:07:51;;;;;;;0.50;0.30;;;;;;;6.39;100.00;96705.84;103402;1317;30139;-75
2021/12/31 02:10:23;;;;;;;1.10;0.20;;;;;;;6.41;100.00;96703.06;103427;1317;40329;-75
2021/12/31 02:12:55;;;;;;;0.50;0.20;;;;;;;6.43;100.00;96700.81;103456;1317;36614;-75
2021/12/31 02:15:29;;;;;;;0.40;0.30;;;;;;;6.47;100.00;96698.08;103446;1317;30925;-75
2021/12/31 02:18:03;;;;;;;0.50;0.20;;;;;;;6.49;100.00;96699.10;103385;1317;41128;-75
2021/12/31 02:20:43;;;;;;;0.20;0.20;;;;;;;6.51;100.00;96698.84;103405;1317;32094;-75
2021/12/31 02:23:18;;;;;;;0.30;0.20;;;;;;;6.51;100.00;96699.33;103413;1317;31049;-75
2021/12/31 02:25:49;;;;;;;0.70;0.30;;;;;;;6.50;100.00;96698.73;103331;1317;37487;-75
2021/12/31 02:28:20;;;;;;;0.70;0.30;;;;;;;6.53;100.00;96697.80;103427;1318;31042;-75
2021/12/31 02:30:52;;;;;;;0.20;0.20;;;;;;;6.55;100.00;96699.24;103397;1317;35624;-75
2021/12/31 02:33:24;;;;;;;0.60;0.20;;;;;;;6.58;100.00;96698.95;103442;1316;33872;-74
2021/12/31 02:35:56;;;;;;;0.10;0.10;;;;;;;6.60;100.00;96697.90;103455;1317;28486;-75
2021/12/31 02:38:27;;;;;;;0.30;0.20;;;;;;;6.60;100.00;96701.33;103352;1316;31009;-75
2021/12/31 02:40:58;;;;;;;0.20;0.20;;;;;;;6.62;100.00;96702.10;103379;1317;37827;-75
2021/12/31 02:43:29;;;;;;;0.20;0.20;;;;;;;6.60;100.00;96697.54;103447;1318;30744;-75
2021/12/31 02:46:00;;;;;;;0.10;0.10;;;;;;;6.59;100.00;96700.85;103351;1316;34490;-75
2021/12/31 02:48:31;;;;;;;0.60;0.10;;;;;;;6.60;100.00;96701.06;103353;1317;36872;-75
2021/12/31 02:51:03;;;;;;;0.10;0.10;;;;;;;6.62;100.00;96700.52;103347;1317;34984;-75
2021/12/31 02:53:39;;;;;;;1.20;0.40;;;;;;;6.64;100.00;96698.85;103324;1317;37558;-75
2021/12/31 02:56:13;;;;;;;0.30;0.20;;;;;;;6.66;100.00;96698.66;103377;1317;41970;-75
2021/12/31 02:58:44;;;;;;;0.60;0.20;;;;;;;6.67;100.00;96702.93;103417;1316;28551;-75
2021/12/31 03:01:15;;;;;;;0.60;0.30;;;;;;;6.65;100.00;96703.98;103357;1318;31975;-75
2021/12/31 03:03:48;;;;;;;0.60;0.20;;;;;;;6.62;100.00;96698.95;103375;1316;29197;-75
2021/12/31 03:06:20;;;;;;;1.70;0.40;;;;;;;6.61;100.00;96693.60;103362;1317;41845;-75
2021/12/31 03:08:53;;;;;;;0.40;0.10;;;;;;;6.59;100.00;96700.79;103374;1317;37550;-75
2021/12/31 03:11:24;;;;;;;0.10;0.10;;;;;;;6.60;100.00;96702.60;103402;1317;32812;-75
2021/12/31 03:13:59;;;;;;;0.30;0.30;;;;;;;6.63;100.00;96700.67;103465;1317;33137;-75
2021/12/31 03:16:30;;;;;;;0.30;0.20;;;;;;;6.64;100.00;96700.64;103346;1317;40992;-75
2021/12/31 03:19:01;;;;;;;0.70;0.20;;;;;;;6.63;100.00;96698.64;103362;1314;30858;-75
2021/12/31 03:21:33;;;;;;;0.70;0.30;;;;;;;6.65;100.00;96696.17;103458;1313;34686;-75
2021/12/31 03:24:04;;;;;;;1.50;0.30;;;;;;;6.64;100.00;96699.70;103389;1312;31549;-75
2021/12/31 03:26:35;;;;;;;0.80;0.20;;;;;;;6.64;100.00;96694.69;103364;1317;40384;-75
2021/12/31 03:29:07;;;;;;;0.50;0.30;;;;;;;6.64;100.00;96693.37;103417;1317;35438;-75
2021/12/31 03:31:38;;;;;;;0.60;0.10;;;;;;;6.65;100.00;96697.55;103357;1316;43390;-75
2021/12/31 03:34:10;;;;;;;0.20;0.20;;;;;;;6.70;100.00;96699.15;103321;1317;46038;-75
2021/12/31 03:36:41;;;;;;;1.00;0.10;;;;;;;6.71;100.00;96699.64;103432;1317;28729;-75
2021/12/31 03:39:12;;;;;;;0.20;0.20;;;;;;;6.72;100.00;96692.42;103350;1317;32368;-75
2021/12/31 03:41:45;;;;;;;0.50;0.30;;;;;;;6.69;100.00;96696.00;103385;1316;32533;-75
2021/12/31 03:44:16;;;;;;;0.20;0.10;;;;;;;6.67;100.00;96694.98;103427;1316;49688;-75
2021/12/31 03:46:46;;;;;;;1.00;0.20;;;;;;;6.67;100.00;96696.14;103386;1316;34940;-75
2021/12/31 03:49:17;;;;;;;1.40;0.20;;;;;;;6.67;100.00;96697.98;103368;1317;39979;-75
2021/12/31 03:51:48;;;;;;;0.80;0.30;;;;;;;6.67;100.00;96694.25;103377;1317;41097;-75
2021/12/31 03:54:19;;;;;;;0.50;0.20;;;;;;;6.68;100.00;96699.83;103408;1316;37904;-75
2021/12/31 03:56:50;;;;;;;0.20;0.20;;;;;;;6.69;100.00;96701.10;103430;1317;43053;-75
2021/12/31 03:59:21;;;;;;;0.20;0.10;;;;;;;6.71;100.00;96697.31;103459;1316;32723;-75
2021/12/31 04:01:52;;;;;;;0.40;0.20;;;;;;;6.72;100.00;96701.34;103412;1318;36241;-75
2021/12/31 04:04:22;;;;;;;0.20;0.00;;;;;;;6.72;100.00;96701.02;103465;1318;38440;-75
2021/12/31 04:06:54;;;;;;;1.80;0.30;;;;;;;6.74;100.00;96706.09;103428;1317;42710;-75
2021/12/31 04:09:25;;;;;;;0.10;0.10;;;;;;;6.78;100.00;96702.66;103475;1316;29034;-75
2021/12/31 04:11:56;;;;;;;0.20;0.20;;;;;;;6.79;100.00;96702.62;103409;1318;37546;-75
2021/12/31 04:14:27;;;;;;;0.20;0.20;;;;;;;6.79;100.00;96701.51;103411;1317;33186;-75
2021/12/31 04:17:00;;;;;;;0.70;0.20;;;;;;;6.80;100.00;96701.05;103394;1316;36492;-75
2021/12/31 04:19:31;;;;;;;0.50;0.20;;;;;;;6.81;100.00;96704.42;103405;1317;31007;-75
2021/12/31 04:22:02;;;;;;;0.20;0.10;;;;;;;6.83;100.00;96702.59;103448;1316;34977;-75
2021/12/31 04:24:52;;;;;;;0.50;0.30;;;;;;;6.87;100.00;96709.77;103346;1317;29201;-75
2021/12/31 04:27:24;;;;;;;0.20;0.20;;;;;;;6.92;100.00;96710.95;103455;1316;31096;-75
2021/12/31 04:29:55;;;;;;;0.30;0.20;;;;;;;6.94;100.00;96705.48;103406;1316;33263;-75
2021/12/31 04:32:26;;;;;;;0.30;0.10;;;;;;;6.95;100.00;96704.79;103467;1317;41483;-75
2021/12/31 04:34:57;;;;;;;0.40;0.20;;;;;;;6.98;100.00;96705.34;103376;1318;39688;-75
2021/12/31 04:37:28;;;;;;;0.10;0.10;;;;;;;7.00;100.00;96708.30;103366;1317;34464;-75
2021/12/31 04:39:59;;;;;;;0.40;0.20;;;;;;;7.00;100.00;96713.94;103361;1317;44157;-75
2021/12/31 04:42:34;;;;;;;0.30;0.20;;;;;;;7.01;100.00;96717.80;103418;1317;30561;-75
2021/12/31 04:45:06;;;;;;;0.20;0.10;;;;;;;7.02;100.00;96717.33;103462;1317;30101;-75
2021/12/31 04:47:37;;;;;;;0.40;0.20;;;;;;;7.01;100.00;96718.00;103427;1317;39210;-75
2021/12/31 04:50:10;;;;;;;1.20;0.10;;;;;;;6.99;100.00;96718.84;103475;1317;29558;-75
2021/12/31 04:52:41;;;;;;;0.60;0.20;;;;;;;6.98;100.00;96721.25;103379;1317;43068;-75
2021/12/31 04:55:14;;;;;;;1.70;0.30;;;;;;;6.98;100.00;96723.95;103393;1317;43558;-75
2021/12/31 04:57:48;;;;;;;0.70;0.30;;;;;;;6.97;100.00;96727.42;103461;1316;38730;-75
2021/12/31 05:00:19;;;;;;;1.00;0.30;;;;;;;6.98;100.00;96726.90;103360;1318;37470;-75
2021/12/31 05:02:50;;;;;;;0.70;0.30;;;;;;;6.99;100.00;96730.44;103361;1318;40875;-75
2021/12/31 05:05:21;;;;;;;1.00;0.30;;;;;;;7.00;100.00;96733.54;103457;1317;28266;-75
2021/12/31 05:07:52;;;;;;;0.60;0.40;;;;;;;7.02;100.00;96733.09;103452;1317;27380;-75
2021/12/31 05:10:23;;;;;;;0.80;0.40;;;;;;;7.06;100.00;96734.24;103466;1317;30464;-74
2021/12/31 05:12:55;;;;;;;1.90;0.40;;;;;;;7.10;100.00;96728.20;103473;1309;31267;-75
2021/12/31 05:15:30;;;;;;;0.20;0.20;;;;;;;7.12;100.00;96730.85;103529;1317;45197;-75
2021/12/31 05:18:01;;;;;;;0.40;0.30;;;;;;;7.15;100.00;96729.44;103497;1316;37627;-75
2021/12/31 05:20:32;;;;;;;0.40;0.30;;;;;;;7.19;100.00;96722.80;103440;1317;28181;-75
2021/12/31 05:23:03;;;;;;;0.80;0.40;;;;;;;7.21;100.00;96719.33;103363;1317;40401;-75
2021/12/31 05:25:34;;;;;;;0.30;0.30;;;;;;;7.23;100.00;96719.17;103385;1316;39933;-75
2021/12/31 05:28:05;;;;;;;0.80;0.40;;;;;;;7.26;100.00;96727.58;103444;1317;32142;-75
2021/12/31 05:30:35;;;;;;;0.50;0.50;;;;;;;7.27;100.00;96725.10;103264;1317;37703;-75
2021/12/31 05:33:06;;;;;;;1.00;0.50;;;;;;;7.28;100.00;96724.68;103397;1317;32982;-75
2021/12/31 05:35:37;;;;;;;1.40;0.70;;;;;;;7.29;100.00;96724.52;103452;1318;34655;-75
2021/12/31 05:38:08;;;;;;;1.10;0.60;;;;;;;7.29;100.00;96725.00;103428;1317;33628;-75
2021/12/31 05:40:39;;;;;;;1.20;0.30;;;;;;;7.26;100.00;96721.35;103386;1317;37430;-75
2021/12/31 05:43:10;;;;;;;1.00;0.40;;;;;;;7.23;100.00;96719.06;103431;1316;42510;-75
2021/12/31 05:45:41;;;;;;;0.50;0.20;;;;;;;7.24;100.00;96715.75;103368;1317;31171;-75
2021/12/31 05:48:12;;;;;;;0.80;0.50;;;;;;;7.24;100.00;96712.06;103431;1317;33620;-75
2021/12/31 05:50:43;;;;;;;0.60;0.40;;;;;;;7.26;100.00;96708.48;103435;1316;42542;-75
2021/12/31 05:53:14;;;;;;;0.90;0.40;;;;;;;7.25;100.00;96698.88;103377;1317;41946;-75
2021/12/31 05:55:45;;;;;;;1.10;0.70;;;;;;;7.23;100.00;96703.46;103416;1318;30482;-75
2021/12/31 05:58:15;;;;;;;0.60;0.40;;;;;;;7.23;100.00;96708.20;103430;1317;33729;-75
2021/12/31 06:00:46;;;;;;;2.20;0.70;;;;;;;7.20;100.00;96709.25;103395;1318;43762;-75
2021/12/31 06:03:17;;;;;;;1.70;0.90;;;;;;;7.15;100.00;96707.40;103392;1317;31224;-75
2021/12/31 06:05:48;;;;;;;1.50;0.90;;;;;;;7.13;100.00;96707.44;103388;1318;45693;-75
2021/12/31 06:08:19;;;;;;;1.50;0.50;;;;;;;7.14;100.00;96703.48;103405;1316;35996;-75
2021/12/31 06:10:50;;;;;;;1.00;0.60;;;;;;;7.18;100.00;96706.31;103372;1317;39069;-74
2021/12/31 06:13:21;;;;;;;1.00;0.70;;;;;;;7.19;100.00;96704.06;103474;1316;29555;-74
2021/12/31 06:15:57;;;;;;;1.80;1.10;;;;;;;7.22;100.00;96707.41;103408;1318;40959;-75
2021/12/31 06:18:30;;;;;;;1.70;1.00;;;;;;;7.22;100.00;96712.73;103429;1318;38929;-75
2021/12/31 06:21:01;;;;;;;1.80;0.90;;;;;;;7.24;100.00;96716.13;103379;1317;38532;-75
2021/12/31 06:23:32;;;;;;;2.00;1.40;;;;;;;7.24;100.00;96722.51;103424;1317;36340;-75
2021/12/31 06:26:03;;;;;;;5.50;1.30;;;;;;;7.24;100.00;96725.77;103417;1317;30340;-75
2021/12/31 06:28:34;;;;;;;2.00;1.20;;;;;;;7.27;100.00;96729.48;103394;1317;44702;-75
2021/12/31 06:31:05;;;;;;;2.50;1.00;;;;;;;7.31;100.00;96732.55;103442;1317;35311;-75
2021/12/31 06:33:36;;;;;;;0.80;0.80;;;;;;;7.33;100.00;96735.27;103415;1309;29717;-75
2021/12/31 06:36:07;;;;;;;1.20;0.80;;;;;;;7.35;100.00;96739.82;103394;1317;37700;-75
2021/12/31 06:38:38;;;;;;;1.60;1.00;;;;;;;7.34;100.00;96739.50;103439;1316;29980;-75
2021/12/31 06:41:07;;;;;;;;;;;;;;;7.28;100.00;96737.66;103403;1317;35557;-75
2021/12/31 06:43:38;;;;;;;1.60;1.10;;;;;;;7.24;100.00;96737.52;103438;1318;26705;-75
2021/12/31 06:46:09;;;;;;;2.30;1.20;;;;;;;7.22;100.00;96739.05;103404;1316;42718;-75
2021/12/31 06:48:40;;;;;;;1.30;1.10;;;;;;;7.24;100.00;96742.43;103366;1317;36297;-75
2021/12/31 06:51:12;;;;;;;2.00;1.20;;;;;;;7.26;100.00;96745.73;103363;1318;33615;-75
2021/12/31 06:53:43;;;;;;;1.10;0.90;;;;;;;7.26;100.00;96748.56;103389;1317;41181;-75
2021/12/31 06:56:14;;;;;;;1.00;0.80;;;;;;;7.25;100.00;96744.28;103445;1318;35069;-75
2021/12/31 06:58:45;;;;;;;1.20;0.90;;;;;;;7.27;100.00;96743.23;103343;1317;33022;-75
2021/12/31 07:01:16;;;;;;;1.80;1.00;;;;;;;7.29;100.00;96752.63;103458;1317;35094;-75
2021/12/31 07:03:47;;;;;;;1.30;1.00;;;;;;;7.31;100.00;96753.91;103432;1317;31366;-75
2021/12/31 07:06:18;;;;;;;1.80;1.00;;;;;;;7.33;100.00;96753.27;103436;1316;39520;-75
2021/12/31 07:08:49;;;;;;;3.60;1.50;;;;;;;7.34;100.00;96759.45;103439;1318;32213;-75
2021/12/31 07:11:22;;;;;;;1.10;0.90;;;;;;;7.34;100.00;96754.01;103396;1318;39282;-75
2021/12/31 07:13:53;;;;;;;2.50;1.40;;;;;;;7.39;100.00;96749.65;103414;1317;41617;-75
2021/12/31 07:16:23;;;;;;;2.50;1.40;;;;;;;7.40;100.00;96751.09;103425;1317;44076;-75
2021/12/31 07:18:54;;;;;;;2.60;1.50;;;;;;;7.38;100.00;96753.14;103456;1317;26480;-75
2021/12/31 07:21:25;;;;;;;3.40;1.80;;;;;;;7.39;100.00;96756.56;103459;1317;30710;-75
2021/12/31 07:23:56;;;;;;;2.30;1.60;;;;;;;7.35;100.00;96757.18;103436;1317;41368;-75
2021/12/31 07:26:26;;;;;;;2.00;1.30;;;;;;;7.34;100.00;96761.45;103392;1317;36536;-75
2021/12/31 07:28:57;;;;;;;6.40;4.40;;;;;;;7.34;100.00;96762.77;103405;1316;38868;-75
2021/12/31 07:31:28;;;;;;;4.00;2.20;;;;;;;7.35;100.00;96760.98;103386;1317;35984;-75
2021/12/31 07:33:59;;;;;;;3.50;1.80;;;;;;;7.32;100.00;96758.25;103415;1317;31251;-75
2021/12/31 07:36:30;;;;;;;4.10;1.50;;;;;;;7.28;100.00;96764.81;103392;1317;37295;-75
2021/12/31 07:39:05;;;;;;;2.20;1.50;;;;;;;7.27;100.00;96764.29;103478;1317;36332;-75
2021/12/31 07:41:36;;;;;;;2.50;1.50;;;;;;;7.27;100.00;96766.13;103293;1317;38193;-75
2021/12/31 07:44:08;;;;;;;3.10;1.90;;;;;;;7.26;100.00;96769.39;103346;1316;39115;-75
2021/12/31 07:46:40;;;;;;;2.30;1.60;;;;;;;7.28;100.00;96775.00;103414;1317;37207;-75
2021/12/31 07:49:11;;;;;;;2.80;2.00;;;;;;;7.31;100.00;96770.86;103333;1318;47365;-74
2021/12/31 07:51:42;;;;;;;3.10;1.90;;;;;;;7.36;100.00;96771.80;103420;1316;33976;-75
2021/12/31 07:54:13;;;;;;;2.10;1.40;;;;;;;7.37;100.00;96775.27;103406;1317;45565;-75
2021/12/31 07:56:44;;;;;;;3.50;2.40;;;;;;;7.40;100.00;96766.96;103392;1317;38327;-75
2021/12/31 07:59:15;;;;;;;3.40;2.60;;;;;;;7.43;100.00;96774.84;103523;1317;38104;-75
2021/12/31 08:01:46;;;;;;;1.90;1.30;;;;;;;7.44;100.00;96778.00;103398;1317;40622;-75
2021/12/31 08:04:17;;;;;;;2.90;1.50;;;;;;;7.44;100.00;96774.36;103407;1317;32082;-75
2021/12/31 08:06:48;;;;;;;2.60;1.90;;;;;;;7.47;100.00;96775.92;103483;1317;31460;-75
2021/12/31 08:09:19;;;;;;;2.60;1.50;;;;;;;7.57;100.00;96779.14;103451;1317;42091;-75
2021/12/31 08:11:50;;;;;;;4.30;2.80;;;;;;;7.58;100.00;96773.34;103390;1316;40615;-75
2021/12/31 08:14:20;;;;;;;3.10;2.20;;;;;;;7.59;100.00;96774.78;103396;1316;38016;-75
2021/12/31 08:16:51;;;;;;;5.90;3.40;;;;;;;7.63;100.00;96772.71;103451;1316;28569;-75
2021/12/31 08:19:22;;;;;;;5.00;3.20;;;;;;;7.65;100.00;96768.02;103495;1317;27844;-75
2021/12/31 08:21:53;;;;;;;3.90;3.40;;;;;;;7.70;100.00;96772.16;103497;1316;37072;-75
2021/12/31 08:24:24;;;;;;;2.80;1.70;;;;;;;7.78;100.00;96777.13;103510;1317;34629;-74
2021/12/31 08:26:55;;;;;;;4.50;2.40;;;;;;;7.84;100.00;96779.73;103459;1317;30535;-75
2021/12/31 08:29:26;;;;;;;3.20;2.40;;;;;;;7.87;100.00;96778.58;103476;1317;40353;-75
2021/12/31 08:31:57;;;;;;;2.70;1.70;;;;;;;7.87;100.00;96789.92;103500;1318;31664;-75
2021/12/31 08:34:28;;;;;;;2.30;1.40;;;;;;;7.88;100.00;96790.66;103423;1316;29379;-75
2021/12/31 08:37:00;;;;;;;3.00;1.80;;;;;;;7.90;100.00;96793.60;103394;1317;36866;-75
2021/12/31 08:39:31;;;;;;;2.30;1.60;;;;;;;7.90;100.00;96798.67;103452;1317;30978;-75
2021/12/31 08:42:02;;;;;;;6.00;3.00;;;;;;;7.88;100.00;96799.23;103391;1316;36193;-75
2021/12/31 08:44:33;;;;;;;3.30;1.90;;;;;;;7.88;100.00;96802.31;103421;1316;37652;-75
2021/12/31 08:47:05;;;;;;;2.90;1.70;;;;;;;7.89;100.00;96811.92;103426;1317;28436;-75
2021/12/31 08:49:36;;;;;;;3.10;1.50;;;;;;;7.89;100.00;96814.56;103373;1317;39412;-74
2021/12/31 08:52:08;;;;;;;1.90;1.30;;;;;;;7.87;100.00;96816.37;103419;1317;29301;-75
2021/12/31 08:54:39;;;;;;;2.50;1.60;;;;;;;7.85;100.00;96817.21;103383;1316;38117;-75
2021/12/31 08:57:10;;;;;;;2.60;1.50;;;;;;;7.85;100.00;96816.73;103424;1317;36782;-75
2021/12/31 08:59:41;;;;;;;3.60;1.70;;;;;;;7.87;100.00;96813.31;103385;1316;40247;-75
2021/12/31 09:02:13;;;;;;;2.70;1.60;;;;;;;7.87;100.00;96817.90;103405;1316;31609;-75
2021/12/31 09:04:44;;;;;;;2.80;1.50;;;;;;;7.84;100.00;96822.54;103377;1317;39388;-75
2021/12/31 09:07:15;;;;;;;2.50;1.20;;;;;;;7.84;100.00;96821.85;103410;1316;31239;-75
2021/12/31 09:09:46;;;;;;;3.10;1.40;;;;;;;7.85;100.00;96823.44;103390;1317;40067;-75
2021/12/31 09:12:17;;;;;;;2.60;1.40;;;;;;;7.85;100.00;96824.65;103334;1318;42397;-75
2021/12/31 09:14:48;;;;;;;1.70;1.20;;;;;;;7.86;100.00;96827.30;103289;1318;36849;-75
2021/12/31 09:17:21;;;;;;;3.10;1.30;;;;;;;7.89;100.00;96829.08;103388;1317;38321;-75
2021/12/31 09:19:52;;;;;;;1.40;1.00;;;;;;;7.92;100.00;96830.67;103402;1317;28126;-75
2021/12/31 09:22:25;;;;;;;2.10;1.30;;;;;;;7.97;100.00;96827.80;103379;1316;35085;-75
2021/12/31 09:24:58;;;;;;;4.10;1.80;;;;;;;7.99;100.00;96830.23;103498;1316;37766;-75
2021/12/31 09:27:30;;;;;;;2.20;1.40;;;;;;;8.02;100.00;96832.58;103372;1317;27601;-75
2021/12/31 09:30:01;;;;;;;2.00;1.50;;;;;;;8.06;100.00;96832.65;103378;1317;41147;-75
2021/12/31 09:32:31;;;;;;;2.60;1.60;;;;;;;8.02;100.00;96830.89;103361;1316;34954;-75
2021/12/31 09:35:03;;;;;;;3.20;1.50;;;;;;;7.99;100.00;96832.44;103407;1313;38774;-75
2021/12/31 09:37:34;;;;;;;2.10;1.50;;;;;;;7.97;100.00;96833.34;103431;1307;47405;-75
2021/12/31 09:40:06;;;;;;;2.40;1.60;;;;;;;7.98;100.00;96838.24;103381;1315;35449;-75
2021/12/31 09:42:38;;;;;;;2.90;1.50;;;;;;;8.01;100.00;96829.55;103395;1316;32726;-75
2021/12/31 09:45:14;;;;;;;1.60;1.20;;;;;;;8.03;100.00;96841.05;103409;1316;37973;-75
2021/12/31 09:47:46;;;;;;;0.90;0.70;;;;;;;8.03;100.00;96834.17;103345;1317;39205;-75
2021/12/31 09:50:18;;;;;;;2.60;1.70;;;;;;;8.04;100.00;96834.71;103290;1317;36130;-75
2021/12/31 09:52:49;;;;;;;3.10;1.80;;;;;;;8.04;100.00;96832.02;103407;1317;36501;-75
2021/12/31 09:55:38;;;;;;;2.20;1.60;;;;;;;8.03;100.00;96829.10;103415;1317;32239;-75
2021/12/31 09:58:10;;;;;;;2.60;1.60;;;;;;;8.05;100.00;96837.98;103413;1315;32154;-75
2021/12/31 10:00:43;;;;;;;2.30;1.60;;;;;;;8.06;100.00;96836.51;103250;1316;36799;-75
2021/12/31 10:03:17;;;;;;;3.50;1.70;;;;;;;8.05;100.00;96830.80;103374;1318;42316;-75
2021/12/31 10:05:51;;;;;;;2.70;1.60;;;;;;;8.07;100.00;96832.23;103376;1316;39002;-75
2021/12/31 10:08:23;;;;;;;3.70;2.80;;;;;;;8.09;100.00;96827.80;103448;1305;29079;-74
2021/12/31 10:11:12;;;;;;;3.70;2.40;;;;;;;8.08;100.00;96827.73;103436;1318;36823;-74
2021/12/31 10:13:45;;;;;;;2.90;1.90;;;;;;;8.08;100.00;96823.84;103439;1318;31078;-75
2021/12/31 10:16:24;;;;;;;2.60;2.00;;;;;;;8.08;100.00;96825.80;103360;1317;37826;-75
2021/12/31 10:19:10;;;;;;;3.40;2.20;;;;;;;8.12;100.00;96826.48;103390;1317;43800;-75
2021/12/31 10:21:43;;;;;;;3.10;2.00;;;;;;;8.19;100.00;96828.34;103390;1317;41008;-75
2021/12/31 10:24:33;;;;;;;2.20;1.70;;;;;;;8.27;100.00;96822.66;103404;1313;31002;-75
2021/12/31 10:27:17;;;;;;;4.30;2.10;;;;;;;8.37;100.00;96825.64;103425;1317;33612;-75
2021/12/31 10:29:56;;;;;;;3.10;1.60;;;;;;;8.44;100.00;96817.48;103428;1317;31400;-75
2021/12/31 10:32:29;;;;;;;3.60;2.10;;;;;;;8.52;100.00;96818.13;103449;1312;30990;-74
2021/12/31 10:35:10;;;;;;;2.20;1.30;;;;;;;8.64;100.00;96817.48;103377;1317;38631;-75
2021/12/31 10:37:46;;;;;;;3.80;2.20;;;;;;;8.73;100.00;96812.23;103423;1317;32280;-75
2021/12/31 10:40:30;;;;;;;3.00;1.50;;;;;;;8.72;100.00;96811.05;103454;1317;30856;-75
2021/12/31 10:43:21;;;;;;;2.50;1.80;;;;;;;8.75;100.00;96809.65;103404;1316;26630;-75
2021/12/31 10:46:01;;;;;;;;;;;;;;;8.80;100.00;96811.76;103391;1318;37463;-75
2021/12/31 10:48:43;;;;;;;3.30;1.80;;;;;;;8.84;100.00;96817.47;103370;1317;34482;-75
2021/12/31 10:51:16;;;;;;;4.90;2.00;;;;;;;8.86;100.00;96807.02;103409;1317;39270;-75
2021/12/31 10:53:52;;;;;;;3.20;1.70;;;;;;;8.89;100.00;96807.08;103403;1318;35939;-75
2021/12/31 10:56:23;;;;;;;3.00;1.80;;;;;;;8.92;100.00;96806.77;103438;1313;35693;-75
2021/12/31 10:59:03;;;;;;;2.30;1.90;;;;;;;8.95;100.00;96803.12;103588;1316;29099;-75
2021/12/31 11:01:34;;;;;;;2.90;1.60;;;;;;;8.97;100.00;96802.21;103400;1317;29083;-75
2021/12/31 11:04:07;;;;;;;3.40;1.40;;;;;;;8.99;100.00;96795.39;103418;1318;29691;-75
2021/12/31 11:06:38;;;;;;;3.40;1.50;;;;;;;9.00;100.00;96796.92;103365;1318;36276;-75
2021/12/31 11:09:10;;;;;;;4.80;2.50;;;;;;;9.01;100.00;96791.33;103342;1317;40507;-75
2021/12/31 11:11:47;;;;;;;3.20;2.00;;;;;;;9.05;100.00;96790.55;103346;1317;40906;-75
2021/12/31 11:14:18;;;;;;;4.50;2.50;;;;;;;9.07;100.00;96789.42;103394;1317;27820;-75
2021/12/31 11:16:49;;;;;;;5.10;2.80;;;;;;;9.07;100.00;96786.95;103326;1317;44118;-75
2021/12/31 11:19:20;;;;;;;4.40;2.40;;;;;;;9.06;100.00;96786.05;103300;1312;30884;-75
2021/12/31 11:21:52;;;;;;;4.00;2.20;;;;;;;9.07;100.00;96776.80;103286;1317;37912;-75
2021/12/31 11:24:38;;;;;;;5.20;2.80;;;;;;;9.12;100.00;96781.17;103390;1318;38251;-75
2021/12/31 11:27:34;;;;;;;4.30;2.60;;;;;;;9.14;100.00;96779.58;103327;1318;39553;-75
2021/12/31 11:30:24;;;;;;;4.00;2.40;;;;;;;9.17;100.00;96773.05;103303;1317;35223;-75
2021/12/31 11:33:01;;;;;;;3.90;2.40;;;;;;;9.27;100.00;96766.79;103393;1317;32406;-75
2021/12/31 11:35:38;;;;;;;5.00;2.80;;;;;;;9.36;100.00;96767.31;103376;1318;37820;-75
2021/12/31 11:38:14;;;;;;;6.40;3.30;;;;;;;9.41;100.00;96763.76;103349;1316;32407;-75
2021/12/31 11:40:50;;;;;;;6.00;2.80;;;;;;;9.41;100.00;96763.55;103385;1317;39534;-75
2021/12/31 11:43:26;;;;;;;4.80;2.90;;;;;;;9.37;100.00;96760.76;103307;1318;58693;-75
2021/12/31 11:46:34;;;;;;;5.20;2.80;;;;;;;9.33;100.00;96762.30;103400;1317;30841;-75
2021/12/31 11:49:10;;;;;;;6.00;3.00;;;;;;;9.32;100.00;96764.47;103409;1318;35775;-75
2021/12/31 11:51:59;;;;;;;4.30;2.80;;;;;;;9.28;100.00;96760.59;103333;1317;37770;-75
2021/12/31 11:54:30;;;;;;;4.90;3.00;;;;;;;9.25;100.00;96755.15;103358;1317;39799;-75